sensor_id;sensor_type;location;lat;lon;timestamp;P1;durP1;ratioP1;P2;durP2;ratioP2
22603;SDS011;11469;49.024;8.246;2023-05-10T00:02:01;1.33;;;0.90;;
22603;SDS011;11469;49.024;8.246;2023-05-10T00:04:26;5.97;;;1.25;;
22603;SDS011;11469;49.024;8.246;2023-05-10T00:06:52;3.28;;;0.98;;
22603;SDS011;11469;49.024;8.246;2023-05-10T00:09:18;3.35;;;0.95;;
22603;SDS011;11469;49.024;8.246;2023-05-10T00:11:44;4.63;;;1.10;;
22603;SDS011;11469;49.024;8.246;2023-05-10T00:14:09;1.48;;;1.27;;
22603;SDS011;11469;49.024;8.246;2023-05-10T00:16:34;2.50;;;1.25;;
22603;SDS011;11469;49.024;8.246;2023-05-10T00:19:00;1.20;;;1.00;;
22603;SDS011;11469;49.024;8.246;2023-05-10T00:21:25;2.65;;;1.27;;
22603;SDS011;11469;49.024;8.246;2023-05-10T00:23:53;3.00;;;1.30;;
22603;SDS011;11469;49.024;8.246;2023-05-10T00:26:18;1.65;;;1.38;;
22603;SDS011;11469;49.024;8.246;2023-05-10T00:28:44;2.40;;;1.10;;
22603;SDS011;11469;49.024;8.246;2023-05-10T00:31:09;3.22;;;1.20;;
22603;SDS011;11469;49.024;8.246;2023-05-10T00:33:34;1.70;;;1.20;;
22603;SDS011;11469;49.024;8.246;2023-05-10T00:36:00;3.47;;;1.60;;
22603;SDS011;11469;49.024;8.246;2023-05-10T00:38:25;2.25;;;1.55;;
22603;SDS011;11469;49.024;8.246;2023-05-10T00:40:51;6.13;;;1.42;;
22603;SDS011;11469;49.024;8.246;2023-05-10T00:43:16;2.33;;;1.50;;
22603;SDS011;11469;49.024;8.246;2023-05-10T00:45:42;3.65;;;1.20;;
22603;SDS011;11469;49.024;8.246;2023-05-10T00:48:07;1.92;;;1.40;;
22603;SDS011;11469;49.024;8.246;2023-05-10T00:50:33;1.40;;;1.10;;
22603;SDS011;11469;49.024;8.246;2023-05-10T00:52:59;2.03;;;1.40;;
22603;SDS011;11469;49.024;8.246;2023-05-10T00:55:26;2.45;;;1.33;;
22603;SDS011;11469;49.024;8.246;2023-05-10T00:57:52;3.03;;;1.38;;
22603;SDS011;11469;49.024;8.246;2023-05-10T01:00:18;3.75;;;1.40;;
22603;SDS011;11469;49.024;8.246;2023-05-10T01:02:46;4.30;;;1.48;;
22603;SDS011;11469;49.024;8.246;2023-05-10T01:05:12;2.20;;;1.40;;
22603;SDS011;11469;49.024;8.246;2023-05-10T01:07:38;1.85;;;1.20;;
22603;SDS011;11469;49.024;8.246;2023-05-10T01:10:05;4.78;;;1.30;;
22603;SDS011;11469;49.024;8.246;2023-05-10T01:12:32;5.40;;;1.52;;
22603;SDS011;11469;49.024;8.246;2023-05-10T01:15:00;9.30;;;1.50;;
22603;SDS011;11469;49.024;8.246;2023-05-10T01:17:25;3.55;;;1.50;;
22603;SDS011;11469;49.024;8.246;2023-05-10T01:19:51;4.72;;;1.45;;
22603;SDS011;11469;49.024;8.246;2023-05-10T01:22:26;3.97;;;1.50;;
22603;SDS011;11469;49.024;8.246;2023-05-10T01:35:51;1.88;;;1.15;;
22603;SDS011;11469;49.024;8.246;2023-05-10T01:46:35;2.17;;;1.60;;
22603;SDS011;11469;49.024;8.246;2023-05-10T01:49:02;5.72;;;1.90;;
22603;SDS011;11469;49.024;8.246;2023-05-10T01:51:37;2.67;;;1.60;;
22603;SDS011;11469;49.024;8.246;2023-05-10T01:54:06;4.53;;;2.30;;
22603;SDS011;11469;49.024;8.246;2023-05-10T01:56:34;3.33;;;2.45;;
22603;SDS011;11469;49.024;8.246;2023-05-10T01:59:04;2.03;;;1.83;;
22603;SDS011;11469;49.024;8.246;2023-05-10T02:01:33;4.43;;;2.55;;
22603;SDS011;11469;49.024;8.246;2023-05-10T02:04:02;3.22;;;2.53;;
22603;SDS011;11469;49.024;8.246;2023-05-10T02:06:29;4.07;;;2.20;;
22603;SDS011;11469;49.024;8.246;2023-05-10T02:08:56;5.53;;;2.58;;
22603;SDS011;11469;49.024;8.246;2023-05-10T02:11:22;6.00;;;2.38;;
22603;SDS011;11469;49.024;8.246;2023-05-10T02:13:49;2.83;;;2.08;;
22603;SDS011;11469;49.024;8.246;2023-05-10T02:16:16;8.90;;;2.38;;
22603;SDS011;11469;49.024;8.246;2023-05-10T02:18:46;5.93;;;2.45;;
22603;SDS011;11469;49.024;8.246;2023-05-10T02:21:13;4.10;;;3.03;;
22603;SDS011;11469;49.024;8.246;2023-05-10T02:23:41;9.27;;;2.80;;
22603;SDS011;11469;49.024;8.246;2023-05-10T02:26:08;6.53;;;3.00;;
22603;SDS011;11469;49.024;8.246;2023-05-10T02:28:34;4.57;;;3.70;;
22603;SDS011;11469;49.024;8.246;2023-05-10T02:31:00;5.80;;;4.00;;
22603;SDS011;11469;49.024;8.246;2023-05-10T02:33:26;5.47;;;3.58;;
22603;SDS011;11469;49.024;8.246;2023-05-10T02:35:52;6.60;;;3.72;;
22603;SDS011;11469;49.024;8.246;2023-05-10T02:38:20;8.35;;;4.95;;
22603;SDS011;11469;49.024;8.246;2023-05-10T02:40:47;7.32;;;4.53;;
22603;SDS011;11469;49.024;8.246;2023-05-10T02:43:14;9.73;;;5.25;;
22603;SDS011;11469;49.024;8.246;2023-05-10T02:45:42;6.43;;;5.28;;
22603;SDS011;11469;49.024;8.246;2023-05-10T02:48:12;7.15;;;5.13;;
22603;SDS011;11469;49.024;8.246;2023-05-10T02:50:37;6.93;;;5.45;;
22603;SDS011;11469;49.024;8.246;2023-05-10T02:53:14;10.02;;;5.28;;
22603;SDS011;11469;49.024;8.246;2023-05-10T02:55:44;5.97;;;4.97;;
22603;SDS011;11469;49.024;8.246;2023-05-10T02:58:12;10.65;;;5.03;;
22603;SDS011;11469;49.024;8.246;2023-05-10T03:00:37;6.10;;;4.78;;
22603;SDS011;11469;49.024;8.246;2023-05-10T03:03:03;12.63;;;5.35;;
22603;SDS011;11469;49.024;8.246;2023-05-10T03:05:28;9.07;;;4.78;;
22603;SDS011;11469;49.024;8.246;2023-05-10T03:07:54;5.65;;;4.85;;
22603;SDS011;11469;49.024;8.246;2023-05-10T03:10:19;11.75;;;4.90;;
22603;SDS011;11469;49.024;8.246;2023-05-10T03:18:22;14.13;;;5.90;;
22603;SDS011;11469;49.024;8.246;2023-05-10T03:20:55;6.53;;;5.40;;
22603;SDS011;11469;49.024;8.246;2023-05-10T03:23:27;9.35;;;5.57;;
22603;SDS011;11469;49.024;8.246;2023-05-10T03:25:59;11.45;;;5.82;;
22603;SDS011;11469;49.024;8.246;2023-05-10T03:28:25;9.18;;;5.80;;
22603;SDS011;11469;49.024;8.246;2023-05-10T03:30:52;7.38;;;6.28;;
22603;SDS011;11469;49.024;8.246;2023-05-10T03:33:19;7.55;;;6.35;;
22603;SDS011;11469;49.024;8.246;2023-05-10T03:35:44;9.05;;;6.47;;
22603;SDS011;11469;49.024;8.246;2023-05-10T03:38:11;10.73;;;5.95;;
22603;SDS011;11469;49.024;8.246;2023-05-10T03:40:37;9.90;;;7.05;;
22603;SDS011;11469;49.024;8.246;2023-05-10T03:43:02;17.92;;;6.45;;
22603;SDS011;11469;49.024;8.246;2023-05-10T03:45:28;7.88;;;6.75;;
22603;SDS011;11469;49.024;8.246;2023-05-10T03:47:53;8.07;;;6.13;;
22603;SDS011;11469;49.024;8.246;2023-05-10T03:50:19;9.35;;;6.07;;
22603;SDS011;11469;49.024;8.246;2023-05-10T03:52:45;7.82;;;6.07;;
22603;SDS011;11469;49.024;8.246;2023-05-10T03:55:10;12.55;;;5.95;;
22603;SDS011;11469;49.024;8.246;2023-05-10T03:57:36;7.60;;;6.10;;
22603;SDS011;11469;49.024;8.246;2023-05-10T04:00:02;8.43;;;5.65;;
22603;SDS011;11469;49.024;8.246;2023-05-10T04:02:28;8.02;;;6.13;;
22603;SDS011;11469;49.024;8.246;2023-05-10T04:04:54;9.98;;;5.47;;
22603;SDS011;11469;49.024;8.246;2023-05-10T04:07:20;8.18;;;6.00;;
22603;SDS011;11469;49.024;8.246;2023-05-10T04:09:45;7.10;;;5.68;;
22603;SDS011;11469;49.024;8.246;2023-05-10T04:12:11;9.63;;;6.00;;
22603;SDS011;11469;49.024;8.246;2023-05-10T04:14:36;7.55;;;5.90;;
22603;SDS011;11469;49.024;8.246;2023-05-10T04:17:02;6.82;;;5.45;;
22603;SDS011;11469;49.024;8.246;2023-05-10T04:19:31;6.72;;;5.80;;
22603;SDS011;11469;49.024;8.246;2023-05-10T04:21:56;11.15;;;5.85;;
22603;SDS011;11469;49.024;8.246;2023-05-10T04:24:23;6.93;;;5.80;;
22603;SDS011;11469;49.024;8.246;2023-05-10T04:26:48;12.77;;;5.80;;
22603;SDS011;11469;49.024;8.246;2023-05-10T04:29:14;9.93;;;5.53;;
22603;SDS011;11469;49.024;8.246;2023-05-10T04:31:39;8.15;;;5.10;;
22603;SDS011;11469;49.024;8.246;2023-05-10T04:34:04;7.88;;;4.97;;
22603;SDS011;11469;49.024;8.246;2023-05-10T04:36:30;10.45;;;5.20;;
22603;SDS011;11469;49.024;8.246;2023-05-10T04:38:57;13.13;;;5.40;;
22603;SDS011;11469;49.024;8.246;2023-05-10T04:41:22;7.88;;;5.90;;
22603;SDS011;11469;49.024;8.246;2023-05-10T04:43:48;7.45;;;5.53;;
22603;SDS011;11469;49.024;8.246;2023-05-10T04:46:14;8.82;;;5.75;;
22603;SDS011;11469;49.024;8.246;2023-05-10T04:48:39;10.82;;;6.18;;
22603;SDS011;11469;49.024;8.246;2023-05-10T04:51:05;9.85;;;6.68;;
22603;SDS011;11469;49.024;8.246;2023-05-10T04:53:31;9.85;;;6.68;;
22603;SDS011;11469;49.024;8.246;2023-05-10T04:55:57;9.60;;;6.32;;
22603;SDS011;11469;49.024;8.246;2023-05-10T04:58:22;11.90;;;6.72;;
22603;SDS011;11469;49.024;8.246;2023-05-10T05:00:47;16.88;;;7.38;;
22603;SDS011;11469;49.024;8.246;2023-05-10T05:03:13;11.50;;;7.43;;
22603;SDS011;11469;49.024;8.246;2023-05-10T05:05:38;9.80;;;6.88;;
22603;SDS011;11469;49.024;8.246;2023-05-10T05:08:04;10.48;;;6.93;;
22603;SDS011;11469;49.024;8.246;2023-05-10T05:10:29;9.38;;;7.00;;
22603;SDS011;11469;49.024;8.246;2023-05-10T05:12:55;11.40;;;6.97;;
22603;SDS011;11469;49.024;8.246;2023-05-10T05:15:20;10.25;;;7.15;;
22603;SDS011;11469;49.024;8.246;2023-05-10T05:17:45;11.82;;;6.97;;
22603;SDS011;11469;49.024;8.246;2023-05-10T05:20:11;9.70;;;6.90;;
22603;SDS011;11469;49.024;8.246;2023-05-10T05:22:38;10.25;;;7.53;;
22603;SDS011;11469;49.024;8.246;2023-05-10T05:25:03;7.97;;;6.38;;
22603;SDS011;11469;49.024;8.246;2023-05-10T05:27:29;12.40;;;6.45;;
22603;SDS011;11469;49.024;8.246;2023-05-10T05:29:55;11.23;;;6.28;;
22603;SDS011;11469;49.024;8.246;2023-05-10T05:32:22;14.57;;;6.65;;
22603;SDS011;11469;49.024;8.246;2023-05-10T05:34:48;8.57;;;5.85;;
22603;SDS011;11469;49.024;8.246;2023-05-10T05:37:13;10.43;;;5.63;;
22603;SDS011;11469;49.024;8.246;2023-05-10T05:39:43;8.65;;;5.80;;
22603;SDS011;11469;49.024;8.246;2023-05-10T05:42:09;7.07;;;5.30;;
22603;SDS011;11469;49.024;8.246;2023-05-10T05:44:35;7.82;;;4.90;;
22603;SDS011;11469;49.024;8.246;2023-05-10T05:47:00;8.57;;;4.78;;
22603;SDS011;11469;49.024;8.246;2023-05-10T05:49:26;9.23;;;4.40;;
22603;SDS011;11469;49.024;8.246;2023-05-10T05:51:51;13.32;;;3.97;;
22603;SDS011;11469;49.024;8.246;2023-05-10T05:54:17;5.85;;;3.88;;
22603;SDS011;11469;49.024;8.246;2023-05-10T05:56:42;5.40;;;3.65;;
22603;SDS011;11469;49.024;8.246;2023-05-10T05:59:09;6.22;;;3.50;;
22603;SDS011;11469;49.024;8.246;2023-05-10T06:01:34;10.45;;;3.72;;
22603;SDS011;11469;49.024;8.246;2023-05-10T06:04:00;9.30;;;3.03;;
22603;SDS011;11469;49.024;8.246;2023-05-10T06:06:25;3.92;;;3.08;;
22603;SDS011;11469;49.024;8.246;2023-05-10T06:08:51;6.20;;;3.33;;
22603;SDS011;11469;49.024;8.246;2023-05-10T06:11:17;6.82;;;3.22;;
22603;SDS011;11469;49.024;8.246;2023-05-10T06:13:42;4.88;;;3.20;;
22603;SDS011;11469;49.024;8.246;2023-05-10T06:16:08;6.13;;;2.80;;
22603;SDS011;11469;49.024;8.246;2023-05-10T06:18:33;5.97;;;2.65;;
22603;SDS011;11469;49.024;8.246;2023-05-10T06:20:59;3.90;;;2.65;;
22603;SDS011;11469;49.024;8.246;2023-05-10T06:23:25;12.35;;;2.45;;
22603;SDS011;11469;49.024;8.246;2023-05-10T06:25:51;11.20;;;2.83;;
22603;SDS011;11469;49.024;8.246;2023-05-10T06:28:17;5.38;;;2.30;;
22603;SDS011;11469;49.024;8.246;2023-05-10T06:30:42;3.42;;;2.60;;
22603;SDS011;11469;49.024;8.246;2023-05-10T06:33:08;3.72;;;2.20;;
22603;SDS011;11469;49.024;8.246;2023-05-10T06:35:33;3.40;;;2.15;;
22603;SDS011;11469;49.024;8.246;2023-05-10T06:37:59;2.83;;;2.13;;
22603;SDS011;11469;49.024;8.246;2023-05-10T06:40:24;4.00;;;2.17;;
22603;SDS011;11469;49.024;8.246;2023-05-10T06:42:49;3.92;;;2.25;;
22603;SDS011;11469;49.024;8.246;2023-05-10T06:45:15;7.35;;;1.70;;
22603;SDS011;11469;49.024;8.246;2023-05-10T06:47:41;2.28;;;1.70;;
22603;SDS011;11469;49.024;8.246;2023-05-10T06:50:07;2.85;;;1.75;;
22603;SDS011;11469;49.024;8.246;2023-05-10T06:52:33;4.07;;;1.50;;
22603;SDS011;11469;49.024;8.246;2023-05-10T06:54:59;2.75;;;1.50;;
22603;SDS011;11469;49.024;8.246;2023-05-10T06:57:25;2.63;;;1.30;;
22603;SDS011;11469;49.024;8.246;2023-05-10T06:59:50;2.78;;;1.50;;
22603;SDS011;11469;49.024;8.246;2023-05-10T07:02:17;3.33;;;1.48;;
22603;SDS011;11469;49.024;8.246;2023-05-10T07:04:42;4.18;;;1.40;;
22603;SDS011;11469;49.024;8.246;2023-05-10T07:07:08;3.53;;;1.80;;
22603;SDS011;11469;49.024;8.246;2023-05-10T07:09:33;3.33;;;1.60;;
22603;SDS011;11469;49.024;8.246;2023-05-10T07:11:59;14.00;;;1.77;;
22603;SDS011;11469;49.024;8.246;2023-05-10T07:14:24;2.58;;;1.60;;
22603;SDS011;11469;49.024;8.246;2023-05-10T07:16:50;3.58;;;1.70;;
22603;SDS011;11469;49.024;8.246;2023-05-10T07:19:15;3.95;;;1.73;;
22603;SDS011;11469;49.024;8.246;2023-05-10T07:21:40;2.90;;;1.55;;
22603;SDS011;11469;49.024;8.246;2023-05-10T07:24:08;4.38;;;1.30;;
22603;SDS011;11469;49.024;8.246;2023-05-10T07:26:33;4.68;;;1.40;;
22603;SDS011;11469;49.024;8.246;2023-05-10T07:28:58;6.00;;;1.35;;
22603;SDS011;11469;49.024;8.246;2023-05-10T07:31:24;1.75;;;1.13;;
22603;SDS011;11469;49.024;8.246;2023-05-10T07:33:49;2.92;;;1.40;;
22603;SDS011;11469;49.024;8.246;2023-05-10T07:36:15;5.80;;;1.30;;
22603;SDS011;11469;49.024;8.246;2023-05-10T07:38:40;1.60;;;1.20;;
22603;SDS011;11469;49.024;8.246;2023-05-10T07:41:06;2.85;;;1.30;;
22603;SDS011;11469;49.024;8.246;2023-05-10T07:43:31;3.95;;;1.20;;
22603;SDS011;11469;49.024;8.246;2023-05-10T07:45:56;3.30;;;1.13;;
22603;SDS011;11469;49.024;8.246;2023-05-10T07:48:22;5.88;;;1.20;;
22603;SDS011;11469;49.024;8.246;2023-05-10T07:50:48;3.83;;;1.35;;
22603;SDS011;11469;49.024;8.246;2023-05-10T07:53:13;7.10;;;1.13;;
22603;SDS011;11469;49.024;8.246;2023-05-10T07:55:39;5.30;;;1.17;;
22603;SDS011;11469;49.024;8.246;2023-05-10T07:58:04;3.15;;;1.13;;
22603;SDS011;11469;49.024;8.246;2023-05-10T08:00:30;2.78;;;0.68;;
22603;SDS011;11469;49.024;8.246;2023-05-10T08:02:55;3.72;;;1.10;;
22603;SDS011;11469;49.024;8.246;2023-05-10T08:05:20;2.40;;;1.10;;
22603;SDS011;11469;49.024;8.246;2023-05-10T08:07:46;4.35;;;1.20;;
22603;SDS011;11469;49.024;8.246;2023-05-10T08:10:11;2.15;;;1.10;;
22603;SDS011;11469;49.024;8.246;2023-05-10T08:12:37;5.78;;;1.02;;
22603;SDS011;11469;49.024;8.246;2023-05-10T08:15:03;2.03;;;1.00;;
22603;SDS011;11469;49.024;8.246;2023-05-10T08:17:29;2.08;;;0.77;;
22603;SDS011;11469;49.024;8.246;2023-05-10T08:19:54;2.22;;;0.70;;
22603;SDS011;11469;49.024;8.246;2023-05-10T08:22:20;7.10;;;0.93;;
22603;SDS011;11469;49.024;8.246;2023-05-10T08:24:45;3.90;;;0.90;;
22603;SDS011;11469;49.024;8.246;2023-05-10T08:27:10;6.13;;;1.13;;
22603;SDS011;11469;49.024;8.246;2023-05-10T08:29:36;3.55;;;0.77;;
22603;SDS011;11469;49.024;8.246;2023-05-10T08:32:02;1.50;;;0.80;;
22603;SDS011;11469;49.024;8.246;2023-05-10T08:34:28;2.25;;;0.80;;
22603;SDS011;11469;49.024;8.246;2023-05-10T08:36:53;1.67;;;0.63;;
22603;SDS011;11469;49.024;8.246;2023-05-10T08:39:18;3.67;;;0.80;;
22603;SDS011;11469;49.024;8.246;2023-05-10T08:41:44;1.73;;;0.73;;
22603;SDS011;11469;49.024;8.246;2023-05-10T08:44:11;3.55;;;1.00;;
22603;SDS011;11469;49.024;8.246;2023-05-10T08:46:37;7.18;;;0.90;;
22603;SDS011;11469;49.024;8.246;2023-05-10T08:49:09;5.97;;;0.73;;
22603;SDS011;11469;49.024;8.246;2023-05-10T08:51:40;2.25;;;0.50;;
22603;SDS011;11469;49.024;8.246;2023-05-10T08:54:08;1.67;;;0.60;;
22603;SDS011;11469;49.024;8.246;2023-05-10T08:56:34;5.10;;;0.50;;
22603;SDS011;11469;49.024;8.246;2023-05-10T08:59:01;1.77;;;0.50;;
22603;SDS011;11469;49.024;8.246;2023-05-10T09:01:26;1.13;;;0.60;;
22603;SDS011;11469;49.024;8.246;2023-05-10T09:03:52;1.73;;;0.65;;
22603;SDS011;11469;49.024;8.246;2023-05-10T09:06:18;3.33;;;0.90;;
22603;SDS011;11469;49.024;8.246;2023-05-10T09:08:44;5.68;;;0.80;;
22603;SDS011;11469;49.024;8.246;2023-05-10T09:11:11;5.93;;;0.75;;
22603;SDS011;11469;49.024;8.246;2023-05-10T09:13:37;1.70;;;0.60;;
22603;SDS011;11469;49.024;8.246;2023-05-10T09:16:03;2.45;;;0.60;;
22603;SDS011;11469;49.024;8.246;2023-05-10T09:18:29;0.52;;;0.40;;
22603;SDS011;11469;49.024;8.246;2023-05-10T09:20:55;3.85;;;0.90;;
22603;SDS011;11469;49.024;8.246;2023-05-10T09:23:21;2.33;;;0.57;;
22603;SDS011;11469;49.024;8.246;2023-05-10T09:25:47;4.20;;;0.57;;
22603;SDS011;11469;49.024;8.246;2023-05-10T09:28:12;4.82;;;0.50;;
22603;SDS011;11469;49.024;8.246;2023-05-10T09:30:38;2.83;;;0.77;;
22603;SDS011;11469;49.024;8.246;2023-05-10T09:33:04;2.53;;;0.63;;
22603;SDS011;11469;49.024;8.246;2023-05-10T09:35:30;1.17;;;0.57;;
22603;SDS011;11469;49.024;8.246;2023-05-10T09:37:58;1.70;;;0.77;;
22603;SDS011;11469;49.024;8.246;2023-05-10T09:40:26;0.70;;;0.40;;
22603;SDS011;11469;49.024;8.246;2023-05-10T09:45:27;1.42;;;0.50;;
22603;SDS011;11469;49.024;8.246;2023-05-10T09:47:54;9.35;;;0.70;;
22603;SDS011;11469;49.024;8.246;2023-05-10T09:50:21;4.97;;;0.77;;
22603;SDS011;11469;49.024;8.246;2023-05-10T09:55:13;4.03;;;0.65;;
22603;SDS011;11469;49.024;8.246;2023-05-10T09:57:38;3.97;;;0.88;;
22603;SDS011;11469;49.024;8.246;2023-05-10T10:00:05;2.58;;;0.75;;
22603;SDS011;11469;49.024;8.246;2023-05-10T10:02:32;7.55;;;0.63;;
22603;SDS011;11469;49.024;8.246;2023-05-10T10:04:58;1.23;;;0.50;;
22603;SDS011;11469;49.024;8.246;2023-05-10T10:07:26;2.92;;;0.80;;
22603;SDS011;11469;49.024;8.246;2023-05-10T10:09:52;2.63;;;0.90;;
22603;SDS011;11469;49.024;8.246;2023-05-10T10:12:18;8.77;;;1.08;;
22603;SDS011;11469;49.024;8.246;2023-05-10T10:14:45;2.13;;;0.52;;
22603;SDS011;11469;49.024;8.246;2023-05-10T10:17:12;3.15;;;0.80;;
22603;SDS011;11469;49.024;8.246;2023-05-10T10:19:38;4.03;;;0.90;;
22603;SDS011;11469;49.024;8.246;2023-05-10T10:22:03;4.60;;;0.93;;
22603;SDS011;11469;49.024;8.246;2023-05-10T10:24:29;7.63;;;1.38;;
22603;SDS011;11469;49.024;8.246;2023-05-10T10:26:55;6.88;;;1.25;;
22603;SDS011;11469;49.024;8.246;2023-05-10T10:29:37;7.45;;;1.92;;
22603;SDS011;11469;49.024;8.246;2023-05-10T10:35:28;5.90;;;1.80;;
22603;SDS011;11469;49.024;8.246;2023-05-10T10:37:55;2.40;;;0.98;;
22603;SDS011;11469;49.024;8.246;2023-05-10T10:40:27;3.80;;;1.40;;
22603;SDS011;11469;49.024;8.246;2023-05-10T10:42:56;5.82;;;1.55;;
22603;SDS011;11469;49.024;8.246;2023-05-10T10:45:23;4.47;;;1.40;;
22603;SDS011;11469;49.024;8.246;2023-05-10T10:50:47;7.65;;;0.90;;
22603;SDS011;11469;49.024;8.246;2023-05-10T10:53:12;7.30;;;1.10;;
22603;SDS011;11469;49.024;8.246;2023-05-10T10:55:47;6.70;;;1.23;;
22603;SDS011;11469;49.024;8.246;2023-05-10T10:58:34;2.13;;;0.50;;
22603;SDS011;11469;49.024;8.246;2023-05-10T11:01:11;11.10;;;1.15;;
22603;SDS011;11469;49.024;8.246;2023-05-10T11:03:37;6.05;;;0.93;;
22603;SDS011;11469;49.024;8.246;2023-05-10T11:06:02;5.50;;;0.90;;
22603;SDS011;11469;49.024;8.246;2023-05-10T11:08:31;3.88;;;1.17;;
22603;SDS011;11469;49.024;8.246;2023-05-10T11:15:55;5.78;;;0.75;;
22603;SDS011;11469;49.024;8.246;2023-05-10T11:18:25;2.38;;;0.90;;
22603;SDS011;11469;49.024;8.246;2023-05-10T11:23:20;4.78;;;1.05;;
22603;SDS011;11469;49.024;8.246;2023-05-10T11:25:47;7.70;;;0.98;;
22603;SDS011;11469;49.024;8.246;2023-05-10T11:28:14;1.80;;;0.47;;
22603;SDS011;11469;49.024;8.246;2023-05-10T11:30:42;4.40;;;0.60;;
22603;SDS011;11469;49.024;8.246;2023-05-10T11:33:14;13.15;;;0.75;;
22603;SDS011;11469;49.024;8.246;2023-05-10T11:35:41;2.92;;;0.88;;
22603;SDS011;11469;49.024;8.246;2023-05-10T11:38:09;6.05;;;0.90;;
22603;SDS011;11469;49.024;8.246;2023-05-10T11:40:35;6.53;;;0.65;;
22603;SDS011;11469;49.024;8.246;2023-05-10T11:43:02;4.85;;;0.63;;
22603;SDS011;11469;49.024;8.246;2023-05-10T11:45:29;3.42;;;0.65;;
22603;SDS011;11469;49.024;8.246;2023-05-10T11:47:56;4.43;;;0.75;;
22603;SDS011;11469;49.024;8.246;2023-05-10T11:50:22;1.05;;;0.50;;
22603;SDS011;11469;49.024;8.246;2023-05-10T11:52:55;1.73;;;0.55;;
22603;SDS011;11469;49.024;8.246;2023-05-10T11:55:21;2.40;;;0.60;;
22603;SDS011;11469;49.024;8.246;2023-05-10T11:57:51;2.70;;;0.80;;
22603;SDS011;11469;49.024;8.246;2023-05-10T12:00:17;7.50;;;0.70;;
22603;SDS011;11469;49.024;8.246;2023-05-10T12:02:43;2.75;;;0.68;;
22603;SDS011;11469;49.024;8.246;2023-05-10T12:05:08;2.00;;;0.68;;
22603;SDS011;11469;49.024;8.246;2023-05-10T12:07:34;3.20;;;0.98;;
22603;SDS011;11469;49.024;8.246;2023-05-10T12:10:04;2.88;;;0.73;;
22603;SDS011;11469;49.024;8.246;2023-05-10T12:12:40;3.20;;;0.90;;
22603;SDS011;11469;49.024;8.246;2023-05-10T12:15:19;1.92;;;0.73;;
22603;SDS011;11469;49.024;8.246;2023-05-10T12:17:45;1.05;;;0.60;;
22603;SDS011;11469;49.024;8.246;2023-05-10T12:20:18;9.80;;;0.90;;
22603;SDS011;11469;49.024;8.246;2023-05-10T12:22:51;1.95;;;0.70;;
22603;SDS011;11469;49.024;8.246;2023-05-10T12:25:21;2.80;;;1.02;;
22603;SDS011;11469;49.024;8.246;2023-05-10T12:27:52;2.03;;;0.90;;
22603;SDS011;11469;49.024;8.246;2023-05-10T12:30:30;7.85;;;3.05;;
22603;SDS011;11469;49.024;8.246;2023-05-10T12:33:00;3.92;;;1.08;;
22603;SDS011;11469;49.024;8.246;2023-05-10T12:35:33;5.63;;;1.00;;
22603;SDS011;11469;49.024;8.246;2023-05-10T12:40:59;3.08;;;0.93;;
22603;SDS011;11469;49.024;8.246;2023-05-10T12:43:25;5.78;;;0.68;;
22603;SDS011;11469;49.024;8.246;2023-05-10T12:45:50;2.88;;;0.80;;
22603;SDS011;11469;49.024;8.246;2023-05-10T12:48:16;1.17;;;0.50;;
22603;SDS011;11469;49.024;8.246;2023-05-10T12:50:41;1.58;;;0.50;;
22603;SDS011;11469;49.024;8.246;2023-05-10T12:53:07;1.88;;;0.70;;
22603;SDS011;11469;49.024;8.246;2023-05-10T12:55:32;1.55;;;0.50;;
22603;SDS011;11469;49.024;8.246;2023-05-10T12:57:57;2.20;;;0.68;;
22603;SDS011;11469;49.024;8.246;2023-05-10T13:00:23;0.98;;;0.30;;
22603;SDS011;11469;49.024;8.246;2023-05-10T13:02:48;2.17;;;0.40;;
22603;SDS011;11469;49.024;8.246;2023-05-10T13:05:14;2.20;;;0.50;;
22603;SDS011;11469;49.024;8.246;2023-05-10T13:07:39;1.48;;;0.63;;
22603;SDS011;11469;49.024;8.246;2023-05-10T13:10:05;2.50;;;0.60;;
22603;SDS011;11469;49.024;8.246;2023-05-10T13:12:31;2.45;;;0.40;;
22603;SDS011;11469;49.024;8.246;2023-05-10T13:14:57;1.05;;;0.45;;
22603;SDS011;11469;49.024;8.246;2023-05-10T13:17:22;5.88;;;0.40;;
22603;SDS011;11469;49.024;8.246;2023-05-10T13:19:48;3.08;;;0.30;;
22603;SDS011;11469;49.024;8.246;2023-05-10T13:22:13;1.80;;;0.50;;
22603;SDS011;11469;49.024;8.246;2023-05-10T13:24:38;1.88;;;0.40;;
22603;SDS011;11469;49.024;8.246;2023-05-10T13:27:04;1.20;;;0.50;;
22603;SDS011;11469;49.024;8.246;2023-05-10T13:29:29;4.43;;;0.40;;
22603;SDS011;11469;49.024;8.246;2023-05-10T13:31:55;2.58;;;0.47;;
22603;SDS011;11469;49.024;8.246;2023-05-10T13:34:21;4.50;;;0.60;;
22603;SDS011;11469;49.024;8.246;2023-05-10T13:36:46;4.45;;;0.65;;
22603;SDS011;11469;49.024;8.246;2023-05-10T13:39:12;2.53;;;0.50;;
22603;SDS011;11469;49.024;8.246;2023-05-10T13:41:38;1.13;;;0.40;;
22603;SDS011;11469;49.024;8.246;2023-05-10T13:44:03;1.67;;;0.40;;
22603;SDS011;11469;49.024;8.246;2023-05-10T13:46:29;3.03;;;0.50;;
22603;SDS011;11469;49.024;8.246;2023-05-10T13:48:55;3.17;;;0.35;;
22603;SDS011;11469;49.024;8.246;2023-05-10T13:51:21;10.88;;;4.30;;
22603;SDS011;11469;49.024;8.246;2023-05-10T13:53:47;3.50;;;0.40;;
22603;SDS011;11469;49.024;8.246;2023-05-10T13:56:13;2.30;;;0.50;;
22603;SDS011;11469;49.024;8.246;2023-05-10T13:58:39;0.50;;;0.30;;
22603;SDS011;11469;49.024;8.246;2023-05-10T14:01:04;1.27;;;0.32;;
22603;SDS011;11469;49.024;8.246;2023-05-10T14:03:30;2.15;;;0.50;;
22603;SDS011;11469;49.024;8.246;2023-05-10T14:05:55;5.93;;;0.70;;
22603;SDS011;11469;49.024;8.246;2023-05-10T14:08:21;1.42;;;0.47;;
22603;SDS011;11469;49.024;8.246;2023-05-10T14:10:46;1.77;;;0.50;;
22603;SDS011;11469;49.024;8.246;2023-05-10T14:13:13;3.53;;;0.75;;
22603;SDS011;11469;49.024;8.246;2023-05-10T14:15:40;4.05;;;0.40;;
22603;SDS011;11469;49.024;8.246;2023-05-10T14:18:05;1.75;;;0.50;;
22603;SDS011;11469;49.024;8.246;2023-05-10T14:20:31;2.08;;;0.50;;
22603;SDS011;11469;49.024;8.246;2023-05-10T14:22:58;3.42;;;0.63;;
22603;SDS011;11469;49.024;8.246;2023-05-10T14:25:24;1.17;;;0.40;;
22603;SDS011;11469;49.024;8.246;2023-05-10T14:27:49;1.27;;;0.32;;
22603;SDS011;11469;49.024;8.246;2023-05-10T14:30:15;1.40;;;0.55;;
22603;SDS011;11469;49.024;8.246;2023-05-10T14:32:41;3.10;;;0.70;;
22603;SDS011;11469;49.024;8.246;2023-05-10T14:35:06;5.65;;;0.65;;
22603;SDS011;11469;49.024;8.246;2023-05-10T14:37:32;1.25;;;0.50;;
22603;SDS011;11469;49.024;8.246;2023-05-10T14:39:58;2.67;;;0.40;;
22603;SDS011;11469;49.024;8.246;2023-05-10T14:42:23;3.70;;;0.50;;
22603;SDS011;11469;49.024;8.246;2023-05-10T14:44:48;1.00;;;0.43;;
22603;SDS011;11469;49.024;8.246;2023-05-10T14:47:14;5.53;;;0.40;;
22603;SDS011;11469;49.024;8.246;2023-05-10T14:49:39;5.05;;;0.65;;
22603;SDS011;11469;49.024;8.246;2023-05-10T14:52:05;2.70;;;0.50;;
22603;SDS011;11469;49.024;8.246;2023-05-10T14:54:31;2.25;;;0.73;;
22603;SDS011;11469;49.024;8.246;2023-05-10T14:56:58;5.13;;;0.63;;
22603;SDS011;11469;49.024;8.246;2023-05-10T14:59:25;2.22;;;0.52;;
22603;SDS011;11469;49.024;8.246;2023-05-10T15:01:50;1.10;;;0.45;;
22603;SDS011;11469;49.024;8.246;2023-05-10T15:04:16;2.42;;;0.60;;
22603;SDS011;11469;49.024;8.246;2023-05-10T15:06:41;1.67;;;0.40;;
22603;SDS011;11469;49.024;8.246;2023-05-10T15:09:07;3.13;;;0.45;;
22603;SDS011;11469;49.024;8.246;2023-05-10T15:11:32;1.77;;;0.47;;
22603;SDS011;11469;49.024;8.246;2023-05-10T15:13:58;4.57;;;0.57;;
22603;SDS011;11469;49.024;8.246;2023-05-10T15:16:23;1.13;;;0.30;;
22603;SDS011;11469;49.024;8.246;2023-05-10T15:18:49;3.08;;;0.50;;
22603;SDS011;11469;49.024;8.246;2023-05-10T15:21:14;2.20;;;0.40;;
22603;SDS011;11469;49.024;8.246;2023-05-10T15:23:39;2.20;;;0.45;;
22603;SDS011;11469;49.024;8.246;2023-05-10T15:26:05;3.85;;;0.25;;
22603;SDS011;11469;49.024;8.246;2023-05-10T15:28:30;2.25;;;0.30;;